sensor_id;sensor_type;location;lat;lon;timestamp;P1;durP1;ratioP1;P2;durP2;ratioP2
48268;SDS011;34088;52.232;5.196;2023-06-22T00:00:51;6.55;;;5.10;;
48268;SDS011;34088;52.232;5.196;2023-06-22T00:03:17;6.70;;;5.32;;
48268;SDS011;34088;52.232;5.196;2023-06-22T00:05:43;6.60;;;4.78;;
48268;SDS011;34088;52.232;5.196;2023-06-22T00:08:08;6.85;;;5.22;;
48268;SDS011;34088;52.232;5.196;2023-06-22T00:10:34;9.73;;;5.65;;
48268;SDS011;34088;52.232;5.196;2023-06-22T00:13:00;6.68;;;5.70;;
48268;SDS011;34088;52.232;5.196;2023-06-22T00:15:25;6.93;;;5.82;;
48268;SDS011;34088;52.232;5.196;2023-06-22T00:17:51;8.02;;;5.13;;
48268;SDS011;34088;52.232;5.196;2023-06-22T00:32:58;9.23;;;6.22;;
48268;SDS011;34088;52.232;5.196;2023-06-22T00:35:24;6.45;;;5.75;;
48268;SDS011;34088;52.232;5.196;2023-06-22T00:37:54;7.05;;;6.15;;
48268;SDS011;34088;52.232;5.196;2023-06-22T00:40:25;8.90;;;6.05;;
48268;SDS011;34088;52.232;5.196;2023-06-22T00:42:52;8.73;;;7.55;;
48268;SDS011;34088;52.232;5.196;2023-06-22T00:45:17;10.20;;;7.22;;
48268;SDS011;34088;52.232;5.196;2023-06-22T00:50:08;8.05;;;7.13;;
48268;SDS011;34088;52.232;5.196;2023-06-22T00:52:43;10.85;;;7.88;;
48268;SDS011;34088;52.232;5.196;2023-06-22T00:55:09;12.70;;;9.32;;
48268;SDS011;34088;52.232;5.196;2023-06-22T00:57:35;12.43;;;10.05;;
48268;SDS011;34088;52.232;5.196;2023-06-22T01:00:02;12.75;;;10.32;;
48268;SDS011;34088;52.232;5.196;2023-06-22T01:02:31;13.93;;;9.90;;
48268;SDS011;34088;52.232;5.196;2023-06-22T01:04:56;13.02;;;9.75;;
48268;SDS011;34088;52.232;5.196;2023-06-22T01:13:18;13.88;;;11.40;;
48268;SDS011;34088;52.232;5.196;2023-06-22T01:15:50;12.23;;;10.10;;
48268;SDS011;34088;52.232;5.196;2023-06-22T01:18:21;12.77;;;10.23;;
48268;SDS011;34088;52.232;5.196;2023-06-22T01:20:50;16.73;;;9.95;;
48268;SDS011;34088;52.232;5.196;2023-06-22T01:23:26;13.35;;;9.65;;
48268;SDS011;34088;52.232;5.196;2023-06-22T01:26:17;13.90;;;9.50;;
48268;SDS011;34088;52.232;5.196;2023-06-22T01:28:47;12.70;;;9.90;;
48268;SDS011;34088;52.232;5.196;2023-06-22T01:31:18;12.88;;;9.90;;
48268;SDS011;34088;52.232;5.196;2023-06-22T01:33:46;13.43;;;10.00;;
48268;SDS011;34088;52.232;5.196;2023-06-22T01:36:16;12.07;;;10.05;;
48268;SDS011;34088;52.232;5.196;2023-06-22T01:38:42;15.40;;;10.23;;
48268;SDS011;34088;52.232;5.196;2023-06-22T01:41:10;13.40;;;9.50;;
48268;SDS011;34088;52.232;5.196;2023-06-22T01:43:35;14.10;;;9.73;;
48268;SDS011;34088;52.232;5.196;2023-06-22T01:46:01;15.02;;;9.93;;
48268;SDS011;34088;52.232;5.196;2023-06-22T01:48:27;12.32;;;9.93;;
48268;SDS011;34088;52.232;5.196;2023-06-22T01:50:54;11.50;;;9.00;;
48268;SDS011;34088;52.232;5.196;2023-06-22T01:53:22;11.27;;;9.48;;
48268;SDS011;34088;52.232;5.196;2023-06-22T01:55:48;11.00;;;8.48;;
48268;SDS011;34088;52.232;5.196;2023-06-22T01:58:14;11.95;;;9.30;;
48268;SDS011;34088;52.232;5.196;2023-06-22T02:00:40;11.27;;;9.18;;
48268;SDS011;34088;52.232;5.196;2023-06-22T02:03:14;11.70;;;9.52;;
48268;SDS011;34088;52.232;5.196;2023-06-22T02:05:49;14.77;;;11.27;;
48268;SDS011;34088;52.232;5.196;2023-06-22T02:08:20;14.63;;;11.82;;
48268;SDS011;34088;52.232;5.196;2023-06-22T02:10:50;14.05;;;10.70;;
48268;SDS011;34088;52.232;5.196;2023-06-22T02:13:17;12.90;;;10.27;;
48268;SDS011;34088;52.232;5.196;2023-06-22T02:15:43;13.55;;;10.07;;
48268;SDS011;34088;52.232;5.196;2023-06-22T02:18:11;13.20;;;9.93;;
48268;SDS011;34088;52.232;5.196;2023-06-22T02:20:37;13.23;;;9.50;;
48268;SDS011;34088;52.232;5.196;2023-06-22T02:23:03;13.27;;;10.18;;
48268;SDS011;34088;52.232;5.196;2023-06-22T02:25:29;12.07;;;9.60;;
48268;SDS011;34088;52.232;5.196;2023-06-22T02:27:55;12.13;;;9.60;;
48268;SDS011;34088;52.232;5.196;2023-06-22T02:30:20;15.85;;;10.15;;
48268;SDS011;34088;52.232;5.196;2023-06-22T02:32:45;14.80;;;10.18;;
48268;SDS011;34088;52.232;5.196;2023-06-22T02:35:10;13.75;;;11.18;;
48268;SDS011;34088;52.232;5.196;2023-06-22T02:40:04;16.17;;;12.52;;
48268;SDS011;34088;52.232;5.196;2023-06-22T02:42:31;14.98;;;10.55;;
48268;SDS011;34088;52.232;5.196;2023-06-22T02:47:22;10.67;;;8.80;;
48268;SDS011;34088;52.232;5.196;2023-06-22T02:52:13;11.20;;;8.50;;
48268;SDS011;34088;52.232;5.196;2023-06-22T02:54:38;9.50;;;8.40;;
48268;SDS011;34088;52.232;5.196;2023-06-22T02:57:03;10.93;;;8.93;;
48268;SDS011;34088;52.232;5.196;2023-06-22T02:59:29;13.40;;;10.18;;
48268;SDS011;34088;52.232;5.196;2023-06-22T03:01:54;11.50;;;9.25;;
48268;SDS011;34088;52.232;5.196;2023-06-22T03:04:20;11.75;;;9.63;;
48268;SDS011;34088;52.232;5.196;2023-06-22T03:09:15;12.57;;;9.90;;
48268;SDS011;34088;52.232;5.196;2023-06-22T03:14:06;12.07;;;9.20;;
48268;SDS011;34088;52.232;5.196;2023-06-22T03:18:58;10.07;;;8.63;;
48268;SDS011;34088;52.232;5.196;2023-06-22T03:21:23;11.07;;;8.40;;
48268;SDS011;34088;52.232;5.196;2023-06-22T03:23:48;14.82;;;10.23;;
48268;SDS011;34088;52.232;5.196;2023-06-22T03:26:16;16.45;;;10.93;;
48268;SDS011;34088;52.232;5.196;2023-06-22T03:28:42;21.10;;;13.15;;
48268;SDS011;34088;52.232;5.196;2023-06-22T03:33:33;19.23;;;12.63;;
48268;SDS011;34088;52.232;5.196;2023-06-22T03:38:23;20.57;;;12.50;;
48268;SDS011;34088;52.232;5.196;2023-06-22T03:43:14;17.97;;;12.33;;
48268;SDS011;34088;52.232;5.196;2023-06-22T03:45:39;16.45;;;11.98;;
48268;SDS011;34088;52.232;5.196;2023-06-22T03:48:05;18.85;;;12.52;;
48268;SDS011;34088;52.232;5.196;2023-06-22T03:52:55;20.38;;;13.60;;
48268;SDS011;34088;52.232;5.196;2023-06-22T03:57:46;18.47;;;13.27;;
48268;SDS011;34088;52.232;5.196;2023-06-22T04:02:37;21.35;;;11.93;;
48268;SDS011;34088;52.232;5.196;2023-06-22T04:07:28;16.17;;;11.73;;
48268;SDS011;34088;52.232;5.196;2023-06-22T04:12:19;17.20;;;12.23;;
48268;SDS011;34088;52.232;5.196;2023-06-22T04:17:09;19.03;;;13.60;;
48268;SDS011;34088;52.232;5.196;2023-06-22T04:22:00;15.90;;;12.93;;
48268;SDS011;34088;52.232;5.196;2023-06-22T04:26:50;15.50;;;12.70;;
48268;SDS011;34088;52.232;5.196;2023-06-22T04:29:19;17.90;;;12.82;;
48268;SDS011;34088;52.232;5.196;2023-06-22T04:31:45;17.63;;;13.02;;
48268;SDS011;34088;52.232;5.196;2023-06-22T04:34:15;21.27;;;13.23;;
48268;SDS011;34088;52.232;5.196;2023-06-22T04:36:41;20.58;;;15.30;;
48268;SDS011;34088;52.232;5.196;2023-06-22T04:41:39;24.30;;;17.92;;
48268;SDS011;34088;52.232;5.196;2023-06-22T04:44:09;25.88;;;19.02;;
48268;SDS011;34088;52.232;5.196;2023-06-22T04:46:38;33.33;;;23.60;;
48268;SDS011;34088;52.232;5.196;2023-06-22T04:49:04;29.50;;;24.10;;
48268;SDS011;34088;52.232;5.196;2023-06-22T04:51:36;29.50;;;24.55;;
48268;SDS011;34088;52.232;5.196;2023-06-22T04:54:03;34.85;;;26.10;;
48268;SDS011;34088;52.232;5.196;2023-06-22T04:56:30;36.38;;;27.30;;
48268;SDS011;34088;52.232;5.196;2023-06-22T05:01:22;37.92;;;28.58;;
48268;SDS011;34088;52.232;5.196;2023-06-22T05:03:48;40.67;;;29.48;;
48268;SDS011;34088;52.232;5.196;2023-06-22T05:08:39;40.88;;;31.30;;
48268;SDS011;34088;52.232;5.196;2023-06-22T05:11:05;45.53;;;33.33;;
48268;SDS011;34088;52.232;5.196;2023-06-22T05:13:30;45.40;;;33.70;;
48268;SDS011;34088;52.232;5.196;2023-06-22T05:15:55;44.90;;;33.38;;
48268;SDS011;34088;52.232;5.196;2023-06-22T05:18:26;47.20;;;33.40;;
48268;SDS011;34088;52.232;5.196;2023-06-22T05:20:52;46.05;;;33.95;;
48268;SDS011;34088;52.232;5.196;2023-06-22T05:23:18;49.53;;;35.92;;
48268;SDS011;34088;52.232;5.196;2023-06-22T05:25:44;52.20;;;35.53;;
48268;SDS011;34088;52.232;5.196;2023-06-22T05:28:09;48.22;;;35.35;;
48268;SDS011;34088;52.232;5.196;2023-06-22T05:30:36;50.33;;;36.55;;
48268;SDS011;34088;52.232;5.196;2023-06-22T05:33:01;49.35;;;36.55;;
48268;SDS011;34088;52.232;5.196;2023-06-22T05:35:27;46.95;;;35.85;;
48268;SDS011;34088;52.232;5.196;2023-06-22T05:37:52;48.22;;;36.78;;
48268;SDS011;34088;52.232;5.196;2023-06-22T05:40:17;51.40;;;37.35;;
48268;SDS011;34088;52.232;5.196;2023-06-22T05:42:43;49.15;;;37.15;;
48268;SDS011;34088;52.232;5.196;2023-06-22T05:45:08;48.80;;;37.90;;
48268;SDS011;34088;52.232;5.196;2023-06-22T05:47:34;53.75;;;38.40;;
48268;SDS011;34088;52.232;5.196;2023-06-22T05:49:59;54.63;;;40.22;;
48268;SDS011;34088;52.232;5.196;2023-06-22T05:52:25;54.65;;;39.95;;
48268;SDS011;34088;52.232;5.196;2023-06-22T05:54:50;55.08;;;40.95;;
48268;SDS011;34088;52.232;5.196;2023-06-22T05:57:16;56.92;;;41.00;;
48268;SDS011;34088;52.232;5.196;2023-06-22T05:59:41;52.65;;;39.80;;
48268;SDS011;34088;52.232;5.196;2023-06-22T06:02:06;57.22;;;41.13;;
48268;SDS011;34088;52.232;5.196;2023-06-22T06:04:31;53.58;;;41.10;;
48268;SDS011;34088;52.232;5.196;2023-06-22T06:06:57;53.72;;;41.22;;
48268;SDS011;34088;52.232;5.196;2023-06-22T06:09:22;52.03;;;39.13;;
48268;SDS011;34088;52.232;5.196;2023-06-22T06:11:47;54.55;;;40.55;;
48268;SDS011;34088;52.232;5.196;2023-06-22T06:14:13;51.80;;;40.67;;
48268;SDS011;34088;52.232;5.196;2023-06-22T06:16:38;55.45;;;41.30;;
48268;SDS011;34088;52.232;5.196;2023-06-22T06:19:03;50.03;;;39.38;;
48268;SDS011;34088;52.232;5.196;2023-06-22T06:21:29;51.28;;;39.08;;
48268;SDS011;34088;52.232;5.196;2023-06-22T06:23:54;49.80;;;38.85;;
48268;SDS011;34088;52.232;5.196;2023-06-22T06:26:19;51.67;;;39.70;;
48268;SDS011;34088;52.232;5.196;2023-06-22T06:28:52;48.90;;;38.63;;
48268;SDS011;34088;52.232;5.196;2023-06-22T06:31:18;48.90;;;37.72;;
48268;SDS011;34088;52.232;5.196;2023-06-22T06:33:43;48.63;;;38.65;;
48268;SDS011;34088;52.232;5.196;2023-06-22T06:36:08;45.10;;;35.90;;
48268;SDS011;34088;52.232;5.196;2023-06-22T06:38:34;48.60;;;35.58;;
48268;SDS011;34088;52.232;5.196;2023-06-22T06:40:59;44.33;;;34.42;;
48268;SDS011;34088;52.232;5.196;2023-06-22T06:43:24;45.85;;;36.13;;
48268;SDS011;34088;52.232;5.196;2023-06-22T06:45:50;48.63;;;36.97;;
48268;SDS011;34088;52.232;5.196;2023-06-22T06:48:16;48.00;;;35.92;;
48268;SDS011;34088;52.232;5.196;2023-06-22T06:50:42;45.20;;;34.38;;
48268;SDS011;34088;52.232;5.196;2023-06-22T06:53:09;45.80;;;35.63;;
48268;SDS011;34088;52.232;5.196;2023-06-22T06:55:34;43.15;;;35.30;;
48268;SDS011;34088;52.232;5.196;2023-06-22T06:58:00;44.83;;;35.83;;
48268;SDS011;34088;52.232;5.196;2023-06-22T07:00:26;40.03;;;32.40;;
48268;SDS011;34088;52.232;5.196;2023-06-22T07:02:52;41.33;;;32.58;;
48268;SDS011;34088;52.232;5.196;2023-06-22T07:05:17;40.92;;;32.50;;
48268;SDS011;34088;52.232;5.196;2023-06-22T07:07:43;39.92;;;31.63;;
48268;SDS011;34088;52.232;5.196;2023-06-22T07:10:08;37.38;;;30.90;;
48268;SDS011;34088;52.232;5.196;2023-06-22T07:12:34;38.60;;;31.63;;
48268;SDS011;34088;52.232;5.196;2023-06-22T07:15:03;34.97;;;30.23;;
48268;SDS011;34088;52.232;5.196;2023-06-22T07:17:30;37.05;;;30.63;;
48268;SDS011;34088;52.232;5.196;2023-06-22T07:19:56;39.17;;;29.13;;
48268;SDS011;34088;52.232;5.196;2023-06-22T07:22:21;37.63;;;30.90;;
48268;SDS011;34088;52.232;5.196;2023-06-22T07:24:46;37.95;;;30.48;;
48268;SDS011;34088;52.232;5.196;2023-06-22T07:27:11;39.88;;;30.92;;
48268;SDS011;34088;52.232;5.196;2023-06-22T07:29:37;49.03;;;31.38;;
48268;SDS011;34088;52.232;5.196;2023-06-22T07:32:04;47.50;;;34.35;;
48268;SDS011;34088;52.232;5.196;2023-06-22T07:34:30;36.55;;;30.20;;
48268;SDS011;34088;52.232;5.196;2023-06-22T07:36:55;36.08;;;29.25;;
48268;SDS011;34088;52.232;5.196;2023-06-22T07:39:21;37.17;;;29.58;;
48268;SDS011;34088;52.232;5.196;2023-06-22T07:41:50;40.63;;;31.77;;
48268;SDS011;34088;52.232;5.196;2023-06-22T07:44:16;39.05;;;29.88;;
48268;SDS011;34088;52.232;5.196;2023-06-22T07:46:41;35.53;;;29.58;;
48268;SDS011;34088;52.232;5.196;2023-06-22T07:49:07;32.63;;;29.20;;
48268;SDS011;34088;52.232;5.196;2023-06-22T07:51:33;34.20;;;29.30;;
48268;SDS011;34088;52.232;5.196;2023-06-22T07:53:59;31.55;;;26.15;;
48268;SDS011;34088;52.232;5.196;2023-06-22T07:56:24;38.30;;;27.83;;
48268;SDS011;34088;52.232;5.196;2023-06-22T07:58:49;32.60;;;26.30;;
48268;SDS011;34088;52.232;5.196;2023-06-22T08:01:15;40.70;;;33.10;;
48268;SDS011;34088;52.232;5.196;2023-06-22T08:03:40;33.08;;;27.90;;
48268;SDS011;34088;52.232;5.196;2023-06-22T08:06:06;27.95;;;24.52;;
48268;SDS011;34088;52.232;5.196;2023-06-22T08:08:34;29.45;;;24.63;;
48268;SDS011;34088;52.232;5.196;2023-06-22T08:10:59;27.88;;;23.27;;
48268;SDS011;34088;52.232;5.196;2023-06-22T08:13:24;28.77;;;24.17;;
48268;SDS011;34088;52.232;5.196;2023-06-22T08:15:50;27.60;;;23.67;;
48268;SDS011;34088;52.232;5.196;2023-06-22T08:18:15;28.52;;;23.45;;
48268;SDS011;34088;52.232;5.196;2023-06-22T08:20:41;26.30;;;20.48;;
48268;SDS011;34088;52.232;5.196;2023-06-22T08:23:07;25.73;;;21.45;;
48268;SDS011;34088;52.232;5.196;2023-06-22T08:25:32;25.58;;;22.67;;
48268;SDS011;34088;52.232;5.196;2023-06-22T08:27:59;28.08;;;22.63;;
48268;SDS011;34088;52.232;5.196;2023-06-22T08:30:24;27.40;;;21.20;;
48268;SDS011;34088;52.232;5.196;2023-06-22T08:32:50;23.60;;;21.10;;
48268;SDS011;34088;52.232;5.196;2023-06-22T08:35:15;23.23;;;20.73;;
48268;SDS011;34088;52.232;5.196;2023-06-22T08:37:40;24.10;;;20.58;;
48268;SDS011;34088;52.232;5.196;2023-06-22T08:40:07;24.45;;;20.73;;
48268;SDS011;34088;52.232;5.196;2023-06-22T08:42:34;23.08;;;19.48;;
48268;SDS011;34088;52.232;5.196;2023-06-22T08:45:05;24.48;;;21.55;;
48268;SDS011;34088;52.232;5.196;2023-06-22T08:47:31;24.23;;;21.05;;
48268;SDS011;34088;52.232;5.196;2023-06-22T08:49:56;22.10;;;19.20;;
48268;SDS011;34088;52.232;5.196;2023-06-22T08:52:22;19.38;;;17.13;;
48268;SDS011;34088;52.232;5.196;2023-06-22T08:54:48;22.65;;;17.73;;
48268;SDS011;34088;52.232;5.196;2023-06-22T08:57:13;19.58;;;16.52;;
48268;SDS011;34088;52.232;5.196;2023-06-22T08:59:39;22.02;;;18.05;;
48268;SDS011;34088;52.232;5.196;2023-06-22T09:02:05;22.25;;;17.05;;
48268;SDS011;34088;52.232;5.196;2023-06-22T09:04:30;22.52;;;17.80;;
48268;SDS011;34088;52.232;5.196;2023-06-22T09:06:59;18.45;;;16.15;;
48268;SDS011;34088;52.232;5.196;2023-06-22T09:09:25;21.67;;;16.50;;
48268;SDS011;34088;52.232;5.196;2023-06-22T09:11:50;18.67;;;15.40;;
48268;SDS011;34088;52.232;5.196;2023-06-22T09:14:15;16.08;;;14.05;;
48268;SDS011;34088;52.232;5.196;2023-06-22T09:16:41;15.77;;;13.30;;
48268;SDS011;34088;52.232;5.196;2023-06-22T09:19:06;19.52;;;13.88;;
48268;SDS011;34088;52.232;5.196;2023-06-22T09:21:31;14.10;;;11.25;;
48268;SDS011;34088;52.232;5.196;2023-06-22T09:23:57;11.13;;;9.23;;
48268;SDS011;34088;52.232;5.196;2023-06-22T09:26:22;14.30;;;10.20;;
48268;SDS011;34088;52.232;5.196;2023-06-22T09:28:48;17.05;;;11.38;;
48268;SDS011;34088;52.232;5.196;2023-06-22T09:31:14;11.98;;;9.15;;
48268;SDS011;34088;52.232;5.196;2023-06-22T09:33:41;12.15;;;8.52;;
48268;SDS011;34088;52.232;5.196;2023-06-22T09:36:07;10.95;;;9.07;;
48268;SDS011;34088;52.232;5.196;2023-06-22T09:38:38;14.32;;;10.23;;
48268;SDS011;34088;52.232;5.196;2023-06-22T09:41:04;12.55;;;10.43;;
48268;SDS011;34088;52.232;5.196;2023-06-22T09:43:31;12.77;;;9.98;;
48268;SDS011;34088;52.232;5.196;2023-06-22T09:45:57;11.82;;;9.70;;
48268;SDS011;34088;52.232;5.196;2023-06-22T09:48:23;11.55;;;8.70;;
48268;SDS011;34088;52.232;5.196;2023-06-22T09:50:48;11.52;;;8.88;;
48268;SDS011;34088;52.232;5.196;2023-06-22T09:53:13;11.65;;;8.32;;
48268;SDS011;34088;52.232;5.196;2023-06-22T09:55:38;12.90;;;10.32;;
48268;SDS011;34088;52.232;5.196;2023-06-22T09:58:04;10.50;;;8.90;;
48268;SDS011;34088;52.232;5.196;2023-06-22T10:00:29;12.35;;;9.38;;
48268;SDS011;34088;52.232;5.196;2023-06-22T10:02:55;10.80;;;8.50;;
48268;SDS011;34088;52.232;5.196;2023-06-22T10:05:21;12.27;;;9.32;;
48268;SDS011;34088;52.232;5.196;2023-06-22T10:07:46;10.50;;;8.80;;
48268;SDS011;34088;52.232;5.196;2023-06-22T10:10:11;12.15;;;8.93;;
48268;SDS011;34088;52.232;5.196;2023-06-22T10:12:41;12.35;;;9.95;;
48268;SDS011;34088;52.232;5.196;2023-06-22T10:15:11;11.30;;;7.90;;
48268;SDS011;34088;52.232;5.196;2023-06-22T10:17:37;12.27;;;9.07;;
48268;SDS011;34088;52.232;5.196;2023-06-22T10:20:02;11.23;;;8.93;;
48268;SDS011;34088;52.232;5.196;2023-06-22T10:22:38;13.27;;;9.55;;
48268;SDS011;34088;52.232;5.196;2023-06-22T10:25:04;13.45;;;9.05;;
48268;SDS011;34088;52.232;5.196;2023-06-22T10:27:30;14.52;;;9.70;;
48268;SDS011;34088;52.232;5.196;2023-06-22T10:29:56;12.10;;;9.30;;
48268;SDS011;34088;52.232;5.196;2023-06-22T10:32:21;15.05;;;10.93;;
48268;SDS011;34088;52.232;5.196;2023-06-22T10:34:47;13.05;;;9.02;;
48268;SDS011;34088;52.232;5.196;2023-06-22T10:37:12;12.15;;;8.60;;
48268;SDS011;34088;52.232;5.196;2023-06-22T10:39:37;8.93;;;7.50;;
48268;SDS011;34088;52.232;5.196;2023-06-22T10:42:03;9.68;;;7.63;;
48268;SDS011;34088;52.232;5.196;2023-06-22T10:44:28;9.85;;;8.07;;
48268;SDS011;34088;52.232;5.196;2023-06-22T10:46:53;11.18;;;8.20;;
48268;SDS011;34088;52.232;5.196;2023-06-22T10:49:18;9.70;;;7.60;;
48268;SDS011;34088;52.232;5.196;2023-06-22T10:51:44;13.00;;;8.00;;
48268;SDS011;34088;52.232;5.196;2023-06-22T10:54:09;11.48;;;8.30;;
48268;SDS011;34088;52.232;5.196;2023-06-22T10:56:34;12.02;;;7.47;;
48268;SDS011;34088;52.232;5.196;2023-06-22T10:59:00;11.20;;;8.05;;
48268;SDS011;34088;52.232;5.196;2023-06-22T11:01:26;9.80;;;7.75;;
48268;SDS011;34088;52.232;5.196;2023-06-22T11:03:53;11.25;;;8.48;;
48268;SDS011;34088;52.232;5.196;2023-06-22T11:06:18;10.02;;;7.20;;
48268;SDS011;34088;52.232;5.196;2023-06-22T11:08:44;10.57;;;7.70;;
48268;SDS011;34088;52.232;5.196;2023-06-22T11:11:10;10.57;;;7.60;;
48268;SDS011;34088;52.232;5.196;2023-06-22T11:13:35;12.50;;;8.00;;
48268;SDS011;34088;52.232;5.196;2023-06-22T11:16:01;15.57;;;7.10;;
48268;SDS011;34088;52.232;5.196;2023-06-22T11:18:26;14.10;;;7.45;;
48268;SDS011;34088;52.232;5.196;2023-06-22T11:20:51;10.40;;;7.75;;
48268;SDS011;34088;52.232;5.196;2023-06-22T11:23:16;12.32;;;7.60;;
48268;SDS011;34088;52.232;5.196;2023-06-22T11:25:42;11.23;;;7.00;;
48268;SDS011;34088;52.232;5.196;2023-06-22T11:28:07;11.55;;;7.28;;
48268;SDS011;34088;52.232;5.196;2023-06-22T11:30:33;9.25;;;7.25;;
48268;SDS011;34088;52.232;5.196;2023-06-22T11:32:59;11.68;;;7.65;;
48268;SDS011;34088;52.232;5.196;2023-06-22T11:35:25;14.60;;;8.20;;
48268;SDS011;34088;52.232;5.196;2023-06-22T11:37:50;9.73;;;7.40;;
48268;SDS011;34088;52.232;5.196;2023-06-22T11:40:16;9.07;;;7.63;;
48268;SDS011;34088;52.232;5.196;2023-06-22T11:42:42;12.82;;;9.18;;
48268;SDS011;34088;52.232;5.196;2023-06-22T11:45:08;13.00;;;8.13;;
48268;SDS011;34088;52.232;5.196;2023-06-22T11:47:33;14.63;;;9.75;;
48268;SDS011;34088;52.232;5.196;2023-06-22T11:49:59;14.23;;;9.60;;
48268;SDS011;34088;52.232;5.196;2023-06-22T11:52:24;13.68;;;9.30;;
48268;SDS011;34088;52.232;5.196;2023-06-22T11:54:49;12.65;;;9.05;;
48268;SDS011;34088;52.232;5.196;2023-06-22T11:57:15;13.82;;;10.35;;
48268;SDS011;34088;52.232;5.196;2023-06-22T11:59:40;13.68;;;11.48;;
48268;SDS011;34088;52.232;5.196;2023-06-22T12:02:05;15.80;;;11.00;;
48268;SDS011;34088;52.232;5.196;2023-06-22T12:04:32;12.05;;;10.52;;
48268;SDS011;34088;52.232;5.196;2023-06-22T12:06:58;15.98;;;12.40;;
48268;SDS011;34088;52.232;5.196;2023-06-22T12:09:23;16.83;;;12.73;;
48268;SDS011;34088;52.232;5.196;2023-06-22T12:11:48;16.98;;;12.77;;
48268;SDS011;34088;52.232;5.196;2023-06-22T12:14:14;15.15;;;13.15;;
48268;SDS011;34088;52.232;5.196;2023-06-22T12:16:39;19.67;;;14.27;;
48268;SDS011;34088;52.232;5.196;2023-06-22T12:19:04;16.38;;;14.43;;
48268;SDS011;34088;52.232;5.196;2023-06-22T12:21:30;20.50;;;15.23;;
48268;SDS011;34088;52.232;5.196;2023-06-22T12:23:55;18.58;;;15.18;;
48268;SDS011;34088;52.232;5.196;2023-06-22T12:26:21;17.38;;;15.50;;
48268;SDS011;34088;52.232;5.196;2023-06-22T12:28:47;18.80;;;15.30;;
48268;SDS011;34088;52.232;5.196;2023-06-22T12:31:12;20.52;;;15.80;;
48268;SDS011;34088;52.232;5.196;2023-06-22T12:33:38;17.45;;;15.57;;
48268;SDS011;34088;52.232;5.196;2023-06-22T12:36:03;19.70;;;15.10;;
48268;SDS011;34088;52.232;5.196;2023-06-22T12:38:29;19.08;;;14.73;;
48268;SDS011;34088;52.232;5.196;2023-06-22T12:40:55;19.77;;;15.32;;
48268;SDS011;34088;52.232;5.196;2023-06-22T12:43:20;17.92;;;15.00;;
48268;SDS011;34088;52.232;5.196;2023-06-22T12:45:45;17.00;;;14.48;;
48268;SDS011;34088;52.232;5.196;2023-06-22T12:48:11;18.27;;;14.70;;
48268;SDS011;34088;52.232;5.196;2023-06-22T12:50:37;16.85;;;13.85;;
48268;SDS011;34088;52.232;5.196;2023-06-22T12:53:03;16.27;;;13.00;;
48268;SDS011;34088;52.232;5.196;2023-06-22T12:55:29;15.65;;;12.88;;
48268;SDS011;34088;52.232;5.196;2023-06-22T12:57:54;17.73;;;12.63;;
48268;SDS011;34088;52.232;5.196;2023-06-22T13:00:20;14.57;;;12.32;;
48268;SDS011;34088;52.232;5.196;2023-06-22T13:02:45;14.23;;;11.98;;
48268;SDS011;34088;52.232;5.196;2023-06-22T13:05:11;12.52;;;10.60;;
48268;SDS011;34088;52.232;5.196;2023-06-22T13:07:36;12.98;;;10.50;;
48268;SDS011;34088;52.232;5.196;2023-06-22T13:10:02;14.10;;;10.30;;
48268;SDS011;34088;52.232;5.196;2023-06-22T13:12:28;13.95;;;11.32;;
48268;SDS011;34088;52.232;5.196;2023-06-22T13:14:53;13.25;;;11.20;;
48268;SDS011;34088;52.232;5.196;2023-06-22T13:17:19;15.68;;;10.43;;
48268;SDS011;34088;52.232;5.196;2023-06-22T13:19:44;13.77;;;11.00;;
48268;SDS011;34088;52.232;5.196;2023-06-22T13:22:32;14.50;;;11.65;;
48268;SDS011;34088;52.232;5.196;2023-06-22T13:25:09;14.20;;;11.25;;
48268;SDS011;34088;52.232;5.196;2023-06-22T13:27:38;14.07;;;11.30;;
48268;SDS011;34088;52.232;5.196;2023-06-22T13:30:04;13.68;;;10.88;;
48268;SDS011;34088;52.232;5.196;2023-06-22T13:32:30;14.13;;;10.70;;
48268;SDS011;34088;52.232;5.196;2023-06-22T13:34:55;14.88;;;11.63;;
48268;SDS011;34088;52.232;5.196;2023-06-22T13:37:21;15.02;;;12.00;;
48268;SDS011;34088;52.232;5.196;2023-06-22T13:39:46;14.30;;;12.10;;
48268;SDS011;34088;52.232;5.196;2023-06-22T13:42:11;14.45;;;11.50;;
48268;SDS011;34088;52.232;5.196;2023-06-22T13:44:37;16.05;;;11.88;;
48268;SDS011;34088;52.232;5.196;2023-06-22T13:47:02;19.00;;;12.98;;
48268;SDS011;34088;52.232;5.196;2023-06-22T13:49:28;16.42;;;12.65;;
48268;SDS011;34088;52.232;5.196;2023-06-22T13:51:53;18.08;;;13.27;;
48268;SDS011;34088;52.232;5.196;2023-06-22T13:54:18;18.70;;;14.10;;
48268;SDS011;34088;52.232;5.196;2023-06-22T13:56:44;15.82;;;13.55;;
48268;SDS011;34088;52.232;5.196;2023-06-22T13:59:09;14.43;;;12.77;;
48268;SDS011;34088;52.232;5.196;2023-06-22T14:01:35;16.52;;;12.70;;
48268;SDS011;34088;52.232;5.196;2023-06-22T14:04:01;15.52;;;13.27;;
48268;SDS011;34088;52.232;5.196;2023-06-22T14:06:27;16.63;;;13.80;;
48268;SDS011;34088;52.232;5.196;2023-06-22T14:08:52;14.85;;;13.05;;
48268;SDS011;34088;52.232;5.196;2023-06-22T14:11:18;16.15;;;14.32;;
48268;SDS011;34088;52.232;5.196;2023-06-22T14:13:43;16.65;;;13.20;;
48268;SDS011;34088;52.232;5.196;2023-06-22T14:16:08;18.42;;;15.63;;
48268;SDS011;34088;52.232;5.196;2023-06-22T14:18:34;16.02;;;14.38;;
48268;SDS011;34088;52.232;5.196;2023-06-22T14:20:59;18.60;;;13.65;;
48268;SDS011;34088;52.232;5.196;2023-06-22T14:23:24;16.52;;;13.95;;
48268;SDS011;34088;52.232;5.196;2023-06-22T14:25:50;15.07;;;13.35;;
48268;SDS011;34088;52.232;5.196;2023-06-22T14:28:15;16.52;;;14.18;;
48268;SDS011;34088;52.232;5.196;2023-06-22T14:30:41;19.88;;;16.08;;
48268;SDS011;34088;52.232;5.196;2023-06-22T14:33:07;18.15;;;15.27;;
48268;SDS011;34088;52.232;5.196;2023-06-22T14:35:32;17.75;;;15.40;;
48268;SDS011;34088;52.232;5.196;2023-06-22T14:37:57;19.40;;;17.27;;
48268;SDS011;34088;52.232;5.196;2023-06-22T14:40:22;18.90;;;16.90;;
48268;SDS011;34088;52.232;5.196;2023-06-22T14:42:48;23.13;;;18.08;;
48268;SDS011;34088;52.232;5.196;2023-06-22T14:45:13;18.77;;;16.63;;
48268;SDS011;34088;52.232;5.196;2023-06-22T14:47:39;20.92;;;17.67;;
48268;SDS011;34088;52.232;5.196;2023-06-22T14:50:05;24.20;;;19.52;;
48268;SDS011;34088;52.232;5.196;2023-06-22T14:52:30;24.83;;;18.67;;
48268;SDS011;34088;52.232;5.196;2023-06-22T14:54:55;29.13;;;18.60;;
48268;SDS011;34088;52.232;5.196;2023-06-22T14:57:21;19.58;;;17.45;;
48268;SDS011;34088;52.232;5.196;2023-06-22T14:59:47;20.52;;;17.25;;
48268;SDS011;34088;52.232;5.196;2023-06-22T15:02:14;21.55;;;18.10;;
48268;SDS011;34088;52.232;5.196;2023-06-22T15:04:39;20.95;;;17.27;;
48268;SDS011;34088;52.232;5.196;2023-06-22T15:07:05;20.45;;;17.98;;
48268;SDS011;34088;52.232;5.196;2023-06-22T15:09:30;19.77;;;17.40;;
48268;SDS011;34088;52.232;5.196;2023-06-22T15:11:56;22.52;;;17.48;;
48268;SDS011;34088;52.232;5.196;2023-06-22T15:14:22;22.90;;;18.88;;
48268;SDS011;34088;52.232;5.196;2023-06-22T15:16:48;21.45;;;19.15;;
48268;SDS011;34088;52.232;5.196;2023-06-22T15:19:14;21.13;;;18.63;;
48268;SDS011;34088;52.232;5.196;2023-06-22T15:21:39;23.75;;;19.65;;
48268;SDS011;34088;52.232;5.196;2023-06-22T15:24:04;23.40;;;19.60;;
48268;SDS011;34088;52.232;5.196;2023-06-22T15:26:30;24.88;;;21.05;;
48268;SDS011;34088;52.232;5.196;2023-06-22T15:28:55;23.98;;;21.48;;